Time;durP1;ratioP1;P1;durP2;ratioP2;P2;SDS_P1;SDS_P2;PMS_P1;PMS_P2;Temp;Humidity;BMP_temperature;BMP_pressure;BME280_temperature;BME280_humidity;BME280_pressure;Samples;Min_cycle;Max_cycle;Signal;HPM_P1;HPM_P2
2021/03/21 00:10:39;;;;;;;;;;;1.10;96.30;;;-1.68;64.61;96316.41;10170965;29;2213;-85
2021/03/21 00:16:16;;;;;;;;;;;-0.70;95.50;;;-1.58;64.31;96317.97;10176278;29;2064;-87
2021/03/21 00:21:35;;;;;;;;;;;-0.60;95.70;;;-1.57;63.62;96306.41;10144027;29;1734;-87
2021/03/21 00:27:11;;;;;;;;;;;-0.50;95.30;;;-1.59;64.41;96301.31;10192887;28;2460;-87
2021/03/21 00:44:21;;;;;;;;;;;;;;;;;;;;;
2021/03/21 01:01:20;;;;;;;;;;;0.50;97.00;;;-1.61;64.92;96284.03;10302075;28;1694;-89
2021/03/21 01:07:04;;;;;;;;;;;0.00;96.10;;;-1.54;64.62;96269.13;10311511;28;2157;-86
2021/03/21 01:12:49;;;;;;;;;;;-0.70;96.10;;;-1.60;64.30;96273.31;10302577;28;2361;-88
2021/03/21 01:17:59;;;;;;;;;;;0.40;95.90;;;-1.55;64.46;96263.03;10315994;28;2027;-86
2021/03/21 01:23:30;;;;;;;;;;;0.60;96.20;;;-1.56;64.14;96255.31;10306653;28;2222;-88
2021/03/21 01:28:37;;;;;;;;;;;-0.50;95.40;;;-1.60;64.09;96259.31;10325531;28;2365;-87
2021/03/21 01:33:47;;;;;;;;;;;-0.20;95.50;;;-1.62;64.32;96251.59;10316725;28;2475;-87
2021/03/21 01:38:56;;;;;;;;;;;1.50;96.70;;;-1.59;64.50;96240.69;10317004;28;2062;-89
2021/03/21 01:49:27;;;;;;;;;;;0.50;96.10;;;-1.68;64.10;96226.78;10316281;28;2231;-88
2021/03/21 01:54:40;;;;;;;;;;;-0.40;95.30;;;-1.60;64.55;96220.59;10307134;28;2176;-88
2021/03/21 02:00:14;;;;;;;;;;;0.50;95.90;;;-1.59;64.40;96213.50;10313321;28;1897;-89
2021/03/21 02:05:32;;;;;;;;;;;-0.60;95.10;;;-1.57;64.00;96206.22;10311263;28;1740;-88
2021/03/21 02:10:56;;;;;;;;;;;-0.60;95.20;;;-1.53;63.90;96200.38;10306554;28;2100;-88
2021/03/21 02:16:32;;;;;;;;;;;0.90;95.60;;;-1.58;62.09;96189.59;10303087;28;2403;-89
2021/03/21 02:22:03;;;;;;;;;;;-0.30;93.60;;;-1.53;62.13;96191.66;10301294;28;2092;-88
2021/03/21 02:27:32;;;;;;;;;;;0.60;94.00;;;-1.57;62.30;96190.41;10297999;28;2352;-88
2021/03/21 02:32:51;;;;;;;;;;;;;;;;;;;;;
2021/03/21 02:38:17;;;;;;;;;;;-0.60;92.80;;;-1.53;62.30;96173.19;10333998;28;2607;-88
2021/03/21 02:43:50;;;;;;;;;;;0.40;93.10;;;-1.50;61.05;96167.56;10320137;28;2076;-87
2021/03/21 02:49:09;;;;;;;;;;;-0.60;92.50;;;-1.53;60.98;96165.28;10305055;28;2532;-88
2021/03/21 02:54:27;;;;;;;;;;;1.10;92.90;;;-1.58;60.86;96159.78;10324770;28;2351;-87
2021/03/21 02:59:43;;;;;;;;;;;;;;;;;;;;;
2021/03/21 03:10:18;;;;;;;;;;;1.00;92.60;;;-1.53;61.64;96144.19;10282532;28;2004;-86
2021/03/21 03:33:14;;;;;;;;;;;-0.60;92.10;;;-1.56;62.18;96128.78;10291541;28;2627;-88
2021/03/21 03:50:45;;;;;;;;;;;1.00;94.10;;;-1.52;63.06;96109.75;10283382;28;2109;-86
2021/03/21 03:56:12;;;;;;;;;;;0.40;93.90;;;-1.50;63.28;96101.66;10325507;28;2373;-87
2021/03/21 04:01:37;;;;;;;;;;;-0.50;93.40;;;-1.56;63.18;96089.22;10286484;28;1825;-87
2021/03/21 04:07:08;;;;;;;;;;;1.20;94.40;;;-1.53;62.28;96094.91;10312349;28;1849;-88
2021/03/21 04:12:24;;;;;;;;;;;1.20;93.90;;;-1.50;62.87;96093.75;10327350;28;1709;-87
2021/03/21 04:24:12;;;;;;;;;;;0.30;94.00;;;-1.46;62.43;96082.63;10062066;29;3003;-88
2021/03/21 04:35:43;;;;;;;;;;;-0.40;93.20;;;-1.38;62.13;96068.47;10174071;29;2371;-88
2021/03/21 04:41:10;;;;;;;;;;;0.60;93.40;;;-1.45;62.06;96065.78;10263882;28;2424;-88
2021/03/21 04:46:16;;;;;;;;;;;1.00;93.10;;;-1.43;61.97;96063.78;10287878;28;2563;-88
2021/03/21 04:56:56;;;;;;;;;;;-0.30;92.50;;;-1.31;62.51;96056.16;10345200;28;1882;-86
2021/03/21 05:02:17;;;;;;;;;;;-0.30;92.60;;;-1.34;60.94;96069.72;10326677;28;1881;-87
2021/03/21 05:18:53;;;;;;;;;;;1.30;92.70;;;-1.31;62.13;96069.34;10326592;28;2429;-87
2021/03/21 05:30:51;;;;;;;;;;;;;;;;;;;;;
2021/03/21 05:36:18;;;;;;;;;;;;;;;;;;;;;
2021/03/21 05:47:32;;;;;;;;;;;-0.20;91.90;;;-1.08;61.90;96063.81;10377801;28;2039;-87
2021/03/21 05:59:16;;;;;;;;;;;;;;;;;;;;;
2021/03/21 06:04:28;;;;;;;;;;;0.80;92.70;;;-0.88;61.13;96064.75;10235810;29;2255;-87
2021/03/21 06:09:51;;;;;;;;;;;0.00;92.10;;;-0.81;61.84;96054.22;10353305;28;1800;-87
2021/03/21 06:15:46;;;;;;;;;;;0.20;92.20;;;-0.62;60.74;96050.06;10227787;29;1970;-88
2021/03/21 06:43:42;;;;;;;;;;;0.70;90.30;;;-0.07;58.53;96025.19;10244871;28;2370;-87
2021/03/21 06:49:52;;;;;;;;;;;;;;;;;;;;;
2021/03/21 07:01:09;;;;;;;;;;;1.20;88.30;;;0.43;57.63;96009.78;10333347;28;2239;-87
2021/03/21 07:06:47;;;;;;;;;;;2.30;89.10;;;0.35;56.16;96007.34;10208465;28;2138;-87
2021/03/21 07:47:09;;;;;;;;;;;1.90;83.20;;;0.98;53.71;95957.38;10286767;28;1635;-84
2021/03/21 07:52:33;;;;;;;;;;;2.00;83.60;;;1.28;53.20;95951.56;10320161;23;2286;-87
2021/03/21 07:57:54;;;;;;;;;;;2.20;83.30;;;1.27;52.91;95968.47;10298094;28;1977;-84
2021/03/21 08:03:11;;;;;;;;;;;2.30;82.10;;;1.29;52.96;95971.75;10305126;28;1330;-86
2021/03/21 08:08:19;;;;;;;;;;;3.30;82.60;;;1.08;52.93;95968.34;10310590;28;1533;-86
2021/03/21 08:13:29;;;;;;;;;;;2.30;81.90;;;1.05;53.07;95971.41;10323492;28;1560;-85
2021/03/21 08:18:32;;;;;;;;;;;2.90;82.30;;;1.14;52.94;95971.16;10311314;28;1914;-87
2021/03/21 08:23:42;;;;;;;;;;;2.80;82.50;;;1.16;52.41;95969.16;10304741;28;1758;-85
2021/03/21 08:28:58;;;;;;;;;;;2.80;81.90;;;1.21;51.97;95970.16;10335842;28;1517;-83
2021/03/21 08:34:04;;;;;;;;;;;3.60;81.70;;;1.20;52.29;95962.38;10301563;28;1918;-85
2021/03/21 08:39:26;;;;;;;;;;;2.10;81.10;;;1.49;51.97;95958.41;10300344;28;1547;-85
2021/03/21 08:50:15;;;;;;;;;;;3.50;82.20;;;1.65;52.65;95949.94;10305892;28;1306;-84
2021/03/21 08:55:38;;;;;;;;;;;;;;;;;;;;;
2021/03/21 09:01:02;;;;;;;;;;;2.50;79.60;;;1.43;52.21;95932.75;10324414;28;1689;-88
2021/03/21 09:18:36;;;;;;;;;;;2.90;80.80;;;2.11;51.27;95923.09;10324141;28;2031;-87
2021/03/21 09:24:24;;;;;;;;;;;2.90;80.10;;;1.89;50.90;95929.78;10291821;28;1529;-87
2021/03/21 09:35:16;;;;;;;;;;;3.60;80.20;;;2.02;51.73;95927.03;10318001;28;1977;-85
2021/03/21 09:40:49;;;;;;;;;;;3.90;80.50;;;1.87;51.37;95939.81;10308684;28;1690;-83
2021/03/21 09:46:18;;;;;;;;;;;2.90;79.40;;;2.24;51.23;95937.28;10304012;28;1921;-87
2021/03/21 09:51:53;;;;;;;;;;;4.00;80.40;;;2.11;50.53;95933.72;10292721;28;1743;-84
2021/03/21 09:57:05;;;;;;;;;;;3.20;78.60;;;1.98;51.63;95928.53;10344214;28;1950;-87
2021/03/21 10:02:19;;;;;;;;;;;3.10;78.90;;;2.06;51.71;95930.91;10307546;28;2039;-86
2021/03/21 10:13:30;;;;;;;;;;;2.90;78.80;;;1.81;51.79;95922.94;10290527;28;2016;-85
2021/03/21 10:18:52;;;;;;;;;;;3.30;79.40;;;1.90;51.06;95916.31;10307083;28;2236;-89
2021/03/21 10:24:10;;;;;;;;;;;3.90;79.70;;;1.84;50.90;95913.72;10390657;23;1984;-84
2021/03/21 10:29:37;;;;;;;;;;;4.30;79.40;;;1.95;51.90;95905.06;10352342;28;1861;-87
2021/03/21 11:04:33;;;;;;;;;;;5.10;80.40;;;2.64;51.99;95890.75;10220114;29;2142;-85
2021/03/21 11:09:54;;;;;;;;;;;3.40;79.60;;;3.04;52.27;95879.69;10216513;29;2088;-85
2021/03/21 11:15:01;;;;;;;;;;;3.70;80.50;;;3.03;54.10;95870.09;10238181;29;1987;-85
2021/03/21 11:20:21;;;;;;;;;;;;;;;;;;;;;
2021/03/21 11:37:52;;;;;;;;;;;5.30;81.10;;;4.05;51.57;95849.56;9957043;29;2053;-86
2021/03/21 11:43:14;;;;;;;;;;;5.50;80.30;;;3.86;50.92;95856.03;10069159;29;2271;-86
2021/03/21 11:48:20;;;;;;;;;;;6.10;79.60;;;3.32;53.41;95857.06;10240705;29;2021;-87
2021/03/21 11:53:35;;;;;;;;;;;4.40;80.60;;;2.74;54.48;95858.41;10248457;29;1957;-81
2021/03/21 11:58:37;;;;;;;;;;;4.00;81.10;;;2.64;56.19;95855.44;10229228;29;2055;-87
2021/03/21 12:03:39;;;;;;;;;;;4.90;84.40;;;2.45;55.87;95825.44;10235524;29;1867;-85
2021/03/21 12:08:46;;;;;;;;;;;5.10;84.70;;;2.09;57.75;95828.88;10220606;29;1822;-83
2021/03/21 12:13:48;;;;;;;;;;;5.50;85.70;;;1.89;58.38;95834.38;10237894;29;1974;-87
2021/03/21 12:18:55;;;;;;;;;;;4.60;86.40;;;1.89;59.01;95818.47;10208509;29;1988;-87
2021/03/21 12:23:58;;;;;;;;;;;3.60;86.80;;;1.93;59.11;95817.00;10218707;29;1979;-88
2021/03/21 12:29:00;;;;;;;;;;;4.10;87.50;;;1.98;59.23;95822.47;10230762;29;1877;-87
2021/03/21 12:34:03;;;;;;;;;;;4.60;88.30;;;2.22;59.81;95812.84;10226211;29;2301;-86
2021/03/21 12:39:12;;;;;;;;;;;4.30;89.20;;;2.15;58.63;95797.00;10230033;29;2036;-85
2021/03/21 12:44:19;;;;;;;;;;;3.10;87.20;;;2.32;58.39;95797.22;10221429;29;2055;-84
2021/03/21 12:49:28;;;;;;;;;;;4.80;88.40;;;2.45;60.58;95796.25;10213734;29;2086;-90
2021/03/21 12:54:53;;;;;;;;;;;4.60;89.80;;;2.36;61.49;95797.59;10230082;29;1915;-85
2021/03/21 12:59:57;;;;;;;;;;;3.30;90.00;;;2.36;60.69;95802.91;10218661;29;2039;-85
2021/03/21 13:05:06;;;;;;;;;;;5.00;89.80;;;2.43;60.90;95788.53;10218226;29;1738;-88
2021/03/21 13:10:13;;;;;;;;;;;3.50;89.70;;;2.34;61.54;95775.78;10224150;29;2168;-87
2021/03/21 13:15:17;;;;;;;;;;;4.50;91.30;;;2.10;61.32;95778.31;10244782;29;2066;-87
2021/03/21 13:20:24;;;;;;;;;;;4.50;90.70;;;2.27;60.97;95772.41;10248844;28;1863;-85
2021/03/21 13:25:36;;;;;;;;;;;3.40;90.40;;;2.13;60.03;95769.88;10235326;29;1901;-88
2021/03/21 13:30:40;;;;;;;;;;;4.20;90.00;;;2.34;60.29;95765.97;10226622;29;1905;-87
2021/03/21 13:35:42;;;;;;;;;;;3.20;89.50;;;2.25;60.73;95766.50;10222422;29;2109;-88
2021/03/21 13:40:54;;;;;;;;;;;4.90;90.40;;;2.19;60.40;95775.34;10228685;29;2027;-86
2021/03/21 13:46:01;;;;;;;;;;;3.20;89.50;;;1.96;60.71;95768.84;10224543;29;2000;-86
2021/03/21 13:51:05;;;;;;;;;;;3.00;89.00;;;2.30;60.49;95771.97;10228351;29;1947;-88
2021/03/21 13:56:08;;;;;;;;;;;3.40;89.90;;;2.05;61.93;95766.72;10241536;29;1972;-86
2021/03/21 14:01:10;;;;;;;;;;;3.50;90.70;;;2.17;61.26;95763.13;10221650;29;1814;-87
2021/03/21 14:06:12;;;;;;;;;;;4.50;91.50;;;1.98;61.63;95758.84;10238930;29;1708;-89
2021/03/21 14:11:14;;;;;;;;;;;3.70;90.40;;;1.87;61.75;95747.13;10243720;29;2071;-86
2021/03/21 14:16:18;;;;;;;;;;;3.00;90.90;;;1.92;61.53;95743.81;10234934;29;2094;-85
2021/03/21 14:21:20;;;;;;;;;;;4.00;91.30;;;1.88;61.30;95742.63;10226375;29;2176;-87
2021/03/21 14:26:23;;;;;;;;;;;2.90;90.40;;;1.95;61.90;95751.31;10230832;29;1952;-86
2021/03/21 14:31:28;;;;;;;;;;;4.40;91.90;;;1.83;62.96;95745.13;10235880;29;1966;-88
2021/03/21 14:36:30;;;;;;;;;;;3.90;91.90;;;1.63;64.25;95746.13;10260042;29;1895;-87
2021/03/21 14:41:35;;;;;;;;;;;2.80;93.10;;;1.52;65.29;95749.47;10255938;29;2096;-88
2021/03/21 14:46:37;;;;;;;;;;;3.90;94.80;;;1.60;65.84;95735.97;10224151;29;1931;-87
2021/03/21 14:51:42;;;;;;;;;;;2.60;95.10;;;1.62;66.76;95739.19;10263473;29;1384;-85
2021/03/21 14:56:44;;;;;;;;;;;2.70;96.20;;;1.41;68.94;95726.38;10282771;29;1962;-86
2021/03/21 15:01:46;;;;;;;;;;;2.50;98.50;;;1.30;72.98;95725.22;10240615;29;2180;-85
2021/03/21 15:06:50;;;;;;;;;;;4.20;99.90;;;0.97;76.06;95724.69;10231259;29;1985;-86
2021/03/21 15:11:54;;;;;;;;;;;2.20;99.90;;;0.85;77.79;95716.59;10227965;29;2012;-87
2021/03/21 15:16:56;;;;;;;;;;;4.20;99.90;;;1.03;78.72;95707.94;10212949;29;2021;-85
2021/03/21 15:21:58;;;;;;;;;;;1.90;99.90;;;1.15;78.46;95700.91;10213832;29;1901;-87
2021/03/21 15:27:00;;;;;;;;;;;3.50;99.90;;;1.25;75.99;95711.00;10225291;29;1721;-85
2021/03/21 15:32:03;;;;;;;;;;;2.20;99.90;;;1.17;74.63;95714.75;10225562;29;1685;-85
2021/03/21 15:37:05;;;;;;;;;;;2.20;99.90;;;1.37;73.56;95714.56;10252821;29;1891;-85
2021/03/21 15:42:07;;;;;;;;;;;3.30;99.90;;;1.20;75.32;95713.50;10247899;29;1511;-86
2021/03/21 15:47:09;;;;;;;;;;;3.60;99.90;;;1.07;77.43;95720.50;10234076;29;1621;-82
2021/03/21 15:52:14;;;;;;;;;;;2.10;99.90;;;1.01;79.70;95736.44;10247527;29;1595;-83
2021/03/21 15:57:16;;;;;;;;;;;2.00;99.90;;;0.82;80.73;95732.91;10247752;29;1899;-84
2021/03/21 16:02:18;;;;;;;;;;;1.40;99.90;;;0.91;82.11;95736.94;10258876;29;1447;-85
2021/03/21 16:07:23;;;;;;;;;;;3.70;99.90;;;0.76;81.77;95728.47;10223959;29;1775;-85
2021/03/21 16:12:25;;;;;;;;;;;1.80;99.90;;;0.76;81.93;95715.22;10236930;29;1566;-82
2021/03/21 16:17:27;;;;;;;;;;;1.80;99.90;;;0.77;81.51;95693.88;10250105;29;1974;-84
2021/03/21 16:22:29;;;;;;;;;;;3.10;99.90;;;0.80;80.18;95696.06;10239105;29;1502;-84
2021/03/21 16:27:32;;;;;;;;;;;2.70;99.90;;;0.79;78.06;95706.88;10251286;29;1528;-82
2021/03/21 16:32:34;;;;;;;;;;;1.90;99.90;;;0.87;76.85;95713.75;10244953;29;1715;-80
2021/03/21 16:37:36;;;;;;;;;;;1.90;99.90;;;0.96;76.87;95702.69;10238686;29;1927;-83
2021/03/21 16:42:39;;;;;;;;;;;1.90;99.90;;;0.96;75.27;95702.69;10253435;29;1319;-84
2021/03/21 16:47:41;;;;;;;;;;;3.20;99.90;;;1.01;74.95;95694.09;10229418;29;1628;-83
2021/03/21 16:52:44;;;;;;;;;;;2.80;99.90;;;1.10;74.38;95692.81;10271619;29;1349;-84
2021/03/21 16:57:46;;;;;;;;;;;3.80;99.90;;;1.11;73.84;95690.97;10259961;29;1891;-83
2021/03/21 17:02:50;;;;;;;;;;;2.10;99.90;;;1.10;72.67;95686.69;10238264;29;1480;-84
2021/03/21 17:07:52;;;;;;;;;;;3.80;99.90;;;1.17;72.11;95687.47;10238791;29;1322;-84
2021/03/21 17:13:02;;;;;;;;;;;2.10;99.90;;;1.20;71.66;95698.41;10226279;29;1461;-85
2021/03/21 17:18:05;;;;;;;;;;;2.90;99.90;;;1.13;71.10;95699.50;10235321;29;1948;-84
2021/03/21 17:23:12;;;;;;;;;;;3.00;99.90;;;1.13;71.27;95707.44;10249808;29;2159;-85
2021/03/21 17:28:19;;;;;;;;;;;4.10;99.90;;;1.16;70.05;95715.78;10216011;29;2118;-85
2021/03/21 17:33:21;;;;;;;;;;;3.50;99.90;;;1.13;70.51;95707.44;10238409;29;2218;-83
2021/03/21 17:38:25;;;;;;;;;;;4.20;99.90;;;1.12;70.74;95705.81;10232099;29;1895;-83
2021/03/21 17:43:27;;;;;;;;;;;2.10;99.90;;;1.17;70.35;95700.69;10221057;29;1419;-82
2021/03/21 17:54:02;;;;;;;;;;;2.20;99.90;;;1.09;70.78;95715.03;10209761;29;1563;-84
2021/03/21 17:59:05;;;;;;;;;;;3.10;99.90;;;1.10;71.08;95713.19;10270575;29;1907;-84
2021/03/21 18:04:08;;;;;;;;;;;2.20;99.90;;;1.01;70.77;95709.97;10255525;29;1405;-83
2021/03/21 18:09:10;;;;;;;;;;;2.10;99.90;;;1.02;70.64;95707.13;10255933;29;1205;-83
2021/03/21 18:14:12;;;;;;;;;;;2.00;99.90;;;1.01;71.25;95710.78;10253407;29;1598;-85
2021/03/21 18:19:38;;;;;;;;;;;;;;;;;;;;;
2021/03/21 18:24:57;;;;;;;;;;;2.10;99.90;;;1.08;70.86;95711.56;10246074;29;1317;-85
2021/03/21 18:29:59;;;;;;;;;;;2.70;99.90;;;1.14;70.85;95719.66;10243748;29;1555;-86
2021/03/21 18:35:00;;;;;;;;;;;2.20;99.90;;;1.11;70.87;95714.78;10251356;29;1910;-84
2021/03/21 18:40:02;;;;;;;;;;;2.10;99.90;;;1.07;70.87;95717.84;10248305;29;1515;-84
2021/03/21 18:45:06;;;;;;;;;;;2.10;99.90;;;1.08;71.09;95729.25;10225662;29;1627;-85
2021/03/21 18:50:08;;;;;;;;;;;2.10;99.90;;;1.12;71.08;95735.75;10217263;29;2163;-84
2021/03/21 18:55:10;;;;;;;;;;;3.30;99.90;;;1.05;71.37;95738.44;10235375;29;1895;-84
2021/03/21 19:00:13;;;;;;;;;;;2.10;99.90;;;1.14;71.58;95736.34;10236285;29;1607;-84
2021/03/21 19:05:17;;;;;;;;;;;2.20;99.90;;;1.20;71.06;95758.50;10264462;29;1509;-86
2021/03/21 19:10:19;;;;;;;;;;;2.20;99.90;;;1.17;71.81;95751.81;10247656;29;2074;-85
2021/03/21 19:15:21;;;;;;;;;;;3.90;99.90;;;1.17;71.15;95757.09;10240503;29;1990;-85
2021/03/21 19:20:23;;;;;;;;;;;2.90;99.90;;;1.23;71.37;95764.19;10250759;29;1369;-86
2021/03/21 19:25:26;;;;;;;;;;;2.20;99.90;;;1.19;71.42;95762.19;10242160;29;1584;-84
2021/03/21 19:30:28;;;;;;;;;;;2.20;99.90;;;1.21;71.25;95754.81;10234208;29;1835;-84
2021/03/21 19:35:30;;;;;;;;;;;2.30;99.90;;;1.21;71.29;95757.47;10233912;29;1979;-85
2021/03/21 19:40:32;;;;;;;;;;;2.30;99.90;;;1.22;71.50;95764.41;10236429;29;1572;-85
2021/03/21 19:45:34;;;;;;;;;;;2.20;99.90;;;1.27;71.88;95761.91;10228797;29;1690;-86
2021/03/21 19:50:36;;;;;;;;;;;2.30;99.90;;;1.26;71.61;95760.28;10230641;29;1396;-84
2021/03/21 19:55:38;;;;;;;;;;;2.30;99.90;;;1.28;71.68;95760.91;10251552;29;1891;-83
2021/03/21 20:00:40;;;;;;;;;;;2.30;99.90;;;1.25;72.03;95767.41;10237369;29;1667;-84
2021/03/21 20:05:42;;;;;;;;;;;1.40;99.90;;;1.26;72.07;95771.69;10241220;29;1579;-83
2021/03/21 20:10:44;;;;;;;;;;;2.20;99.90;;;1.19;72.09;95764.81;10221656;29;2447;-86
2021/03/21 20:15:49;;;;;;;;;;;2.20;99.90;;;1.20;72.74;95761.97;10216041;29;2402;-84
2021/03/21 20:20:51;;;;;;;;;;;2.20;99.90;;;1.10;73.30;95761.63;10244793;29;2646;-85
2021/03/21 20:25:53;;;;;;;;;;;2.20;99.90;;;1.04;73.46;95752.72;10235685;29;2414;-85
2021/03/21 20:30:55;;;;;;;;;;;4.30;99.90;;;1.05;73.75;95758.81;10215209;29;2395;-83
2021/03/21 20:35:57;;;;;;;;;;;2.10;99.90;;;1.01;73.92;95763.72;10222312;29;2426;-86
2021/03/21 20:40:59;;;;;;;;;;;2.30;99.90;;;0.99;74.28;95765.78;10224277;29;2391;-86
2021/03/21 20:46:01;;;;;;;;;;;2.00;99.90;;;0.99;73.96;95776.34;10221000;29;2235;-84
2021/03/21 20:51:06;;;;;;;;;;;1.90;99.90;;;0.95;74.34;95769.88;10234339;29;2554;-86
2021/03/21 20:56:07;;;;;;;;;;;4.00;99.90;;;0.96;74.38;95774.16;10215141;29;2356;-85
2021/03/21 21:01:09;;;;;;;;;;;3.30;99.90;;;0.98;74.30;95782.69;10223232;29;2110;-86
2021/03/21 21:06:11;;;;;;;;;;;1.90;99.90;;;0.96;74.48;95771.50;10213634;29;2213;-85
2021/03/21 21:11:13;;;;;;;;;;;2.00;99.90;;;0.98;74.66;95782.69;10227932;29;2250;-83
2021/03/21 21:16:15;;;;;;;;;;;2.00;99.90;;;0.95;74.57;95777.00;10246957;29;2465;-84
2021/03/21 21:21:17;;;;;;;;;;;2.00;99.90;;;0.87;74.77;95771.97;10214878;29;2390;-83
2021/03/21 21:26:19;;;;;;;;;;;1.90;99.90;;;0.88;74.87;95774.38;10213308;29;2403;-85
2021/03/21 21:31:22;;;;;;;;;;;2.00;99.90;;;0.95;74.52;95775.16;10257349;29;2345;-85
2021/03/21 21:36:24;;;;;;;;;;;2.00;99.90;;;0.94;74.91;95778.84;10232366;29;2415;-81
2021/03/21 21:41:26;;;;;;;;;;;2.00;99.90;;;0.94;75.00;95784.13;10252098;29;2374;-83
2021/03/21 21:46:28;;;;;;;;;;;2.00;99.90;;;0.91;74.79;95784.56;10245803;29;2723;-84
2021/03/21 21:51:30;;;;;;;;;;;2.40;99.90;;;0.82;75.60;95780.53;10272548;29;2774;-83
2021/03/21 21:56:33;;;;;;;;;;;1.90;99.90;;;0.85;75.82;95787.25;10271128;29;2226;-85
2021/03/21 22:01:35;;;;;;;;;;;3.50;99.90;;;0.83;76.05;95790.13;10275797;29;2449;-84
2021/03/21 22:06:37;;;;;;;;;;;1.80;99.90;;;0.84;76.05;95786.44;10237720;29;2283;-84
2021/03/21 22:11:39;;;;;;;;;;;1.90;99.90;;;0.84;76.43;95793.56;10246722;29;2336;-84
2021/03/21 22:16:41;;;;;;;;;;;1.90;99.90;;;0.80;76.32;95793.16;10218058;29;2807;-83
2021/03/21 22:21:43;;;;;;;;;;;1.90;99.90;;;0.82;76.76;95796.41;10241558;29;2351;-83
2021/03/21 22:26:44;;;;;;;;;;;2.10;99.90;;;0.84;77.23;95794.38;10245938;29;2310;-85
2021/03/21 22:31:47;;;;;;;;;;;1.80;99.90;;;0.85;77.05;95798.66;10246091;29;2472;-84
2021/03/21 22:36:49;;;;;;;;;;;1.90;99.90;;;0.86;77.44;95802.09;10243442;28;2052;-83
2021/03/21 22:41:51;;;;;;;;;;;2.50;99.90;;;0.84;77.93;95798.88;10227052;29;2413;-84
2021/03/21 22:46:53;;;;;;;;;;;3.20;99.90;;;0.78;78.18;95800.53;10242998;29;2309;-83
2021/03/21 22:51:55;;;;;;;;;;;1.90;99.90;;;0.75;78.42;95795.63;10252782;29;2257;-84
2021/03/21 22:56:57;;;;;;;;;;;1.80;99.90;;;0.77;78.45;95798.91;10231748;29;2288;-85
2021/03/21 23:01:58;;;;;;;;;;;1.80;99.90;;;0.73;78.82;95797.69;10228253;29;2293;-85
2021/03/21 23:07:01;;;;;;;;;;;1.80;99.90;;;0.74;79.28;95794.00;10230232;29;2386;-82
2021/03/21 23:12:03;;;;;;;;;;;1.80;99.90;;;0.75;79.29;95795.63;10253744;29;1993;-86
2021/03/21 23:17:17;;;;;;;;;;;1.80;99.90;;;0.73;79.51;95797.69;10214609;29;2561;-83
2021/03/21 23:22:19;;;;;;;;;;;3.90;99.90;;;0.75;79.66;95799.09;10232056;29;2362;-85
2021/03/21 23:27:21;;;;;;;;;;;1.80;99.90;;;0.78;80.28;95800.53;10242393;29;2318;-85
2021/03/21 23:32:23;;;;;;;;;;;1.80;99.90;;;0.76;80.03;95802.53;10224067;29;2069;-85
2021/03/21 23:37:25;;;;;;;;;;;1.80;99.90;;;0.81;80.12;95794.78;10242251;29;2235;-83
2021/03/21 23:42:27;;;;;;;;;;;1.90;99.90;;;0.86;79.73;95802.91;10247052;28;2180;-84
2021/03/21 23:47:39;;;;;;;;;;;1.90;99.90;;;0.84;80.11;95797.03;10252406;29;2285;-84
2021/03/21 23:52:41;;;;;;;;;;;1.80;99.90;;;0.84;79.99;95788.28;10248676;29;2427;-82
2021/03/21 23:57:44;;;;;;;;;;;1.90;99.90;;;0.91;80.01;95795.16;10239408;29;2301;-83
